sensor_id;sensor_type;location;lat;lon;timestamp;temperature;humidity
10826;DHT22;5466;55.898;14.094;2024-03-08T00:01:19;-5.60;99.90
10826;DHT22;5466;55.898;14.094;2024-03-08T00:03:19;-5.60;99.90
10826;DHT22;5466;55.898;14.094;2024-03-08T00:05:20;-5.60;99.90
10826;DHT22;5466;55.898;14.094;2024-03-08T00:07:21;-5.60;99.90
10826;DHT22;5466;55.898;14.094;2024-03-08T00:09:22;-5.60;99.90
10826;DHT22;5466;55.898;14.094;2024-03-08T00:11:23;-5.60;99.90
10826;DHT22;5466;55.898;14.094;2024-03-08T00:13:26;-5.50;99.90
10826;DHT22;5466;55.898;14.094;2024-03-08T00:15:27;-5.40;99.90
10826;DHT22;5466;55.898;14.094;2024-03-08T00:17:29;-5.40;99.90
10826;DHT22;5466;55.898;14.094;2024-03-08T00:19:31;-5.30;99.90
10826;DHT22;5466;55.898;14.094;2024-03-08T00:21:32;-5.40;99.90
10826;DHT22;5466;55.898;14.094;2024-03-08T00:23:33;-5.40;99.90
10826;DHT22;5466;55.898;14.094;2024-03-08T00:25:33;-5.50;99.90
10826;DHT22;5466;55.898;14.094;2024-03-08T00:27:34;-5.50;99.90
10826;DHT22;5466;55.898;14.094;2024-03-08T00:29:35;-5.60;99.90
10826;DHT22;5466;55.898;14.094;2024-03-08T00:31:36;-5.60;99.90
10826;DHT22;5466;55.898;14.094;2024-03-08T00:33:36;-5.70;99.90
10826;DHT22;5466;55.898;14.094;2024-03-08T00:35:37;-5.70;99.90
10826;DHT22;5466;55.898;14.094;2024-03-08T00:37:37;-5.70;99.90
10826;DHT22;5466;55.898;14.094;2024-03-08T00:39:38;-5.80;99.90
10826;DHT22;5466;55.898;14.094;2024-03-08T00:41:39;-5.70;99.90
10826;DHT22;5466;55.898;14.094;2024-03-08T00:43:39;-5.80;99.90
10826;DHT22;5466;55.898;14.094;2024-03-08T00:45:40;-5.70;99.90
10826;DHT22;5466;55.898;14.094;2024-03-08T00:47:43;-5.80;99.90
10826;DHT22;5466;55.898;14.094;2024-03-08T00:49:44;-5.80;99.90
10826;DHT22;5466;55.898;14.094;2024-03-08T00:51:45;-5.80;99.90
10826;DHT22;5466;55.898;14.094;2024-03-08T00:53:45;-5.70;99.90
10826;DHT22;5466;55.898;14.094;2024-03-08T00:55:47;-5.60;99.90
10826;DHT22;5466;55.898;14.094;2024-03-08T00:57:47;-5.50;99.90
10826;DHT22;5466;55.898;14.094;2024-03-08T00:59:48;-5.50;99.90
10826;DHT22;5466;55.898;14.094;2024-03-08T01:01:49;-5.50;99.90
10826;DHT22;5466;55.898;14.094;2024-03-08T01:03:49;-5.60;99.90
10826;DHT22;5466;55.898;14.094;2024-03-08T01:05:50;-5.60;99.90
10826;DHT22;5466;55.898;14.094;2024-03-08T01:07:51;-5.70;99.90
10826;DHT22;5466;55.898;14.094;2024-03-08T01:09:52;-5.80;99.90
10826;DHT22;5466;55.898;14.094;2024-03-08T01:11:56;-5.90;99.90
10826;DHT22;5466;55.898;14.094;2024-03-08T01:13:57;-6.00;99.90
10826;DHT22;5466;55.898;14.094;2024-03-08T01:15:57;-6.00;99.90
10826;DHT22;5466;55.898;14.094;2024-03-08T01:17:58;-6.10;99.90
10826;DHT22;5466;55.898;14.094;2024-03-08T01:19:59;-6.10;99.90
10826;DHT22;5466;55.898;14.094;2024-03-08T01:21:59;-6.00;99.90
10826;DHT22;5466;55.898;14.094;2024-03-08T01:24:00;-6.10;99.90
10826;DHT22;5466;55.898;14.094;2024-03-08T01:26:01;-6.10;99.90
10826;DHT22;5466;55.898;14.094;2024-03-08T01:28:02;-6.10;99.90
10826;DHT22;5466;55.898;14.094;2024-03-08T01:30:05;-6.20;99.90
10826;DHT22;5466;55.898;14.094;2024-03-08T01:32:06;-6.20;99.90
10826;DHT22;5466;55.898;14.094;2024-03-08T01:34:07;-6.10;99.90
10826;DHT22;5466;55.898;14.094;2024-03-08T01:36:07;-6.10;99.90
10826;DHT22;5466;55.898;14.094;2024-03-08T01:38:08;-6.20;99.90
10826;DHT22;5466;55.898;14.094;2024-03-08T01:40:09;-6.20;99.90
10826;DHT22;5466;55.898;14.094;2024-03-08T01:42:10;-6.10;99.90
10826;DHT22;5466;55.898;14.094;2024-03-08T01:44:13;-6.00;99.90
10826;DHT22;5466;55.898;14.094;2024-03-08T01:46:19;-5.90;99.90
10826;DHT22;5466;55.898;14.094;2024-03-08T01:48:22;-5.90;99.90
10826;DHT22;5466;55.898;14.094;2024-03-08T01:50:24;-5.80;99.90
10826;DHT22;5466;55.898;14.094;2024-03-08T01:52:25;-5.80;99.90
10826;DHT22;5466;55.898;14.094;2024-03-08T01:54:27;-5.80;99.90
10826;DHT22;5466;55.898;14.094;2024-03-08T01:56:28;-5.90;99.90
10826;DHT22;5466;55.898;14.094;2024-03-08T01:58:29;-5.90;99.90
10826;DHT22;5466;55.898;14.094;2024-03-08T02:00:31;-5.90;99.90
10826;DHT22;5466;55.898;14.094;2024-03-08T02:02:33;-5.90;99.90
10826;DHT22;5466;55.898;14.094;2024-03-08T02:04:37;-5.90;99.90
10826;DHT22;5466;55.898;14.094;2024-03-08T02:06:39;-5.90;99.90
10826;DHT22;5466;55.898;14.094;2024-03-08T02:08:41;-5.90;99.90
10826;DHT22;5466;55.898;14.094;2024-03-08T02:10:43;-5.90;99.90
10826;DHT22;5466;55.898;14.094;2024-03-08T02:12:44;-6.00;99.90
10826;DHT22;5466;55.898;14.094;2024-03-08T02:14:46;-6.00;99.90
10826;DHT22;5466;55.898;14.094;2024-03-08T02:16:47;-6.00;99.90
10826;DHT22;5466;55.898;14.094;2024-03-08T02:18:48;-6.10;99.90
10826;DHT22;5466;55.898;14.094;2024-03-08T02:20:53;-6.10;99.90
10826;DHT22;5466;55.898;14.094;2024-03-08T02:22:53;-6.10;99.90
10826;DHT22;5466;55.898;14.094;2024-03-08T02:24:55;-6.00;99.90
10826;DHT22;5466;55.898;14.094;2024-03-08T02:26:56;-6.00;99.90
10826;DHT22;5466;55.898;14.094;2024-03-08T02:28:56;-6.00;99.90
10826;DHT22;5466;55.898;14.094;2024-03-08T02:30:57;-6.00;99.90
10826;DHT22;5466;55.898;14.094;2024-03-08T02:32:58;-6.10;99.90
10826;DHT22;5466;55.898;14.094;2024-03-08T02:34:59;-6.10;99.90
10826;DHT22;5466;55.898;14.094;2024-03-08T02:37:00;-6.00;99.90
10826;DHT22;5466;55.898;14.094;2024-03-08T02:39:04;-6.00;99.90
10826;DHT22;5466;55.898;14.094;2024-03-08T02:41:05;-6.00;99.90
10826;DHT22;5466;55.898;14.094;2024-03-08T02:43:06;-6.00;99.90
10826;DHT22;5466;55.898;14.094;2024-03-08T02:45:07;-6.00;99.90
10826;DHT22;5466;55.898;14.094;2024-03-08T02:47:10;-6.10;99.90
10826;DHT22;5466;55.898;14.094;2024-03-08T02:49:10;-6.20;99.90
10826;DHT22;5466;55.898;14.094;2024-03-08T02:51:12;-6.30;99.90
10826;DHT22;5466;55.898;14.094;2024-03-08T02:53:14;-6.30;99.90
10826;DHT22;5466;55.898;14.094;2024-03-08T02:55:14;-6.40;99.90
10826;DHT22;5466;55.898;14.094;2024-03-08T02:57:18;-6.40;99.90
10826;DHT22;5466;55.898;14.094;2024-03-08T02:59:18;-6.40;99.90
10826;DHT22;5466;55.898;14.094;2024-03-08T03:01:19;-6.50;99.90
10826;DHT22;5466;55.898;14.094;2024-03-08T03:03:20;-6.60;99.90
10826;DHT22;5466;55.898;14.094;2024-03-08T03:05:22;-6.60;99.90
10826;DHT22;5466;55.898;14.094;2024-03-08T03:07:23;-6.70;99.90
10826;DHT22;5466;55.898;14.094;2024-03-08T03:09:24;-6.70;99.90
10826;DHT22;5466;55.898;14.094;2024-03-08T03:11:27;-6.70;99.90
10826;DHT22;5466;55.898;14.094;2024-03-08T03:13:28;-6.60;99.90
10826;DHT22;5466;55.898;14.094;2024-03-08T03:15:30;-6.60;99.90
10826;DHT22;5466;55.898;14.094;2024-03-08T03:17:30;-6.60;99.90
10826;DHT22;5466;55.898;14.094;2024-03-08T03:19:31;-6.60;99.90
10826;DHT22;5466;55.898;14.094;2024-03-08T03:21:31;-6.60;99.90
10826;DHT22;5466;55.898;14.094;2024-03-08T03:23:32;-6.60;99.90
10826;DHT22;5466;55.898;14.094;2024-03-08T03:25:34;-6.60;99.90
10826;DHT22;5466;55.898;14.094;2024-03-08T03:27:36;-6.60;99.90
10826;DHT22;5466;55.898;14.094;2024-03-08T03:29:38;-6.60;99.90
10826;DHT22;5466;55.898;14.094;2024-03-08T03:31:40;-6.60;99.90
10826;DHT22;5466;55.898;14.094;2024-03-08T03:33:41;-6.60;99.90
10826;DHT22;5466;55.898;14.094;2024-03-08T03:35:41;-6.60;99.90
10826;DHT22;5466;55.898;14.094;2024-03-08T03:37:43;-6.60;99.90
10826;DHT22;5466;55.898;14.094;2024-03-08T03:39:51;-6.60;99.90
10826;DHT22;5466;55.898;14.094;2024-03-08T03:41:53;-6.60;99.90
10826;DHT22;5466;55.898;14.094;2024-03-08T03:43:54;-6.60;99.90
10826;DHT22;5466;55.898;14.094;2024-03-08T03:45:54;-6.60;99.90
10826;DHT22;5466;55.898;14.094;2024-03-08T03:47:56;-6.60;99.90
10826;DHT22;5466;55.898;14.094;2024-03-08T03:49:56;-6.60;99.90
10826;DHT22;5466;55.898;14.094;2024-03-08T03:52:02;-6.60;99.90
10826;DHT22;5466;55.898;14.094;2024-03-08T03:54:05;-6.60;99.90
10826;DHT22;5466;55.898;14.094;2024-03-08T03:56:05;-6.60;99.90
10826;DHT22;5466;55.898;14.094;2024-03-08T03:58:07;-6.60;99.90
10826;DHT22;5466;55.898;14.094;2024-03-08T04:00:10;-6.60;99.90
10826;DHT22;5466;55.898;14.094;2024-03-08T04:02:10;-6.60;99.90
10826;DHT22;5466;55.898;14.094;2024-03-08T04:04:11;-6.70;99.90
10826;DHT22;5466;55.898;14.094;2024-03-08T04:06:12;-6.80;99.90
10826;DHT22;5466;55.898;14.094;2024-03-08T04:08:14;-6.80;99.90
10826;DHT22;5466;55.898;14.094;2024-03-08T04:10:15;-6.90;99.90
10826;DHT22;5466;55.898;14.094;2024-03-08T04:12:16;-6.90;99.90
10826;DHT22;5466;55.898;14.094;2024-03-08T04:14:17;-6.90;99.90
10826;DHT22;5466;55.898;14.094;2024-03-08T04:16:17;-6.90;99.90
10826;DHT22;5466;55.898;14.094;2024-03-08T04:18:19;-6.80;99.90
10826;DHT22;5466;55.898;14.094;2024-03-08T04:20:20;-6.80;99.90
10826;DHT22;5466;55.898;14.094;2024-03-08T04:22:21;-6.90;99.90
10826;DHT22;5466;55.898;14.094;2024-03-08T04:24:23;-6.90;99.90
10826;DHT22;5466;55.898;14.094;2024-03-08T04:26:23;-6.90;99.90
10826;DHT22;5466;55.898;14.094;2024-03-08T04:28:24;-6.90;99.90
10826;DHT22;5466;55.898;14.094;2024-03-08T04:30:26;-6.90;99.90
10826;DHT22;5466;55.898;14.094;2024-03-08T04:32:28;-6.90;99.90
10826;DHT22;5466;55.898;14.094;2024-03-08T04:34:30;-6.90;99.90
10826;DHT22;5466;55.898;14.094;2024-03-08T04:36:30;-7.00;99.90
10826;DHT22;5466;55.898;14.094;2024-03-08T04:38:31;-7.00;99.90
10826;DHT22;5466;55.898;14.094;2024-03-08T04:40:32;-7.00;99.90
10826;DHT22;5466;55.898;14.094;2024-03-08T04:42:33;-7.00;99.90
10826;DHT22;5466;55.898;14.094;2024-03-08T04:44:34;-7.10;99.90
10826;DHT22;5466;55.898;14.094;2024-03-08T04:46:34;-7.10;99.90
10826;DHT22;5466;55.898;14.094;2024-03-08T04:48:35;-7.20;99.90
10826;DHT22;5466;55.898;14.094;2024-03-08T04:50:36;-7.20;99.90
10826;DHT22;5466;55.898;14.094;2024-03-08T04:52:38;-7.20;99.90
10826;DHT22;5466;55.898;14.094;2024-03-08T04:54:39;-7.30;99.90
10826;DHT22;5466;55.898;14.094;2024-03-08T04:56:39;-7.30;99.90
10826;DHT22;5466;55.898;14.094;2024-03-08T04:58:40;-7.30;99.90
10826;DHT22;5466;55.898;14.094;2024-03-08T05:00:40;-7.40;99.90
10826;DHT22;5466;55.898;14.094;2024-03-08T05:02:41;-7.40;99.90
10826;DHT22;5466;55.898;14.094;2024-03-08T05:04:42;-7.40;99.90
10826;DHT22;5466;55.898;14.094;2024-03-08T05:06:42;-7.40;99.90
10826;DHT22;5466;55.898;14.094;2024-03-08T05:08:43;-7.40;99.90
10826;DHT22;5466;55.898;14.094;2024-03-08T05:10:44;-7.30;99.90
10826;DHT22;5466;55.898;14.094;2024-03-08T05:12:44;-7.20;99.90
10826;DHT22;5466;55.898;14.094;2024-03-08T05:14:45;-7.20;99.90
10826;DHT22;5466;55.898;14.094;2024-03-08T05:16:50;-7.20;99.90
10826;DHT22;5466;55.898;14.094;2024-03-08T05:18:50;-7.20;99.90
10826;DHT22;5466;55.898;14.094;2024-03-08T05:20:51;-7.20;99.90
10826;DHT22;5466;55.898;14.094;2024-03-08T05:22:52;-7.30;99.90
10826;DHT22;5466;55.898;14.094;2024-03-08T05:24:53;-7.30;99.90
10826;DHT22;5466;55.898;14.094;2024-03-08T05:26:53;-7.30;99.90
10826;DHT22;5466;55.898;14.094;2024-03-08T05:28:54;-7.30;99.90
10826;DHT22;5466;55.898;14.094;2024-03-08T05:30:54;-7.40;99.90
10826;DHT22;5466;55.898;14.094;2024-03-08T05:32:57;-7.40;99.90
10826;DHT22;5466;55.898;14.094;2024-03-08T05:34:57;-7.30;99.90
10826;DHT22;5466;55.898;14.094;2024-03-08T05:36:58;-7.40;99.90
10826;DHT22;5466;55.898;14.094;2024-03-08T05:39:00;-7.40;99.90
10826;DHT22;5466;55.898;14.094;2024-03-08T05:41:01;-7.40;99.90
10826;DHT22;5466;55.898;14.094;2024-03-08T05:43:01;-7.50;99.90
10826;DHT22;5466;55.898;14.094;2024-03-08T05:45:03;-7.50;99.90
10826;DHT22;5466;55.898;14.094;2024-03-08T05:47:04;-7.50;99.90
10826;DHT22;5466;55.898;14.094;2024-03-08T05:49:07;-7.50;99.90
10826;DHT22;5466;55.898;14.094;2024-03-08T05:51:10;-7.40;99.90
10826;DHT22;5466;55.898;14.094;2024-03-08T05:53:11;-7.40;99.90
10826;DHT22;5466;55.898;14.094;2024-03-08T05:55:11;-7.30;99.90
10826;DHT22;5466;55.898;14.094;2024-03-08T05:57:14;-7.20;99.90
10826;DHT22;5466;55.898;14.094;2024-03-08T05:59:15;-7.10;99.90
10826;DHT22;5466;55.898;14.094;2024-03-08T06:01:16;-7.10;99.90
10826;DHT22;5466;55.898;14.094;2024-03-08T06:03:16;-7.10;99.90
10826;DHT22;5466;55.898;14.094;2024-03-08T06:05:18;-7.10;99.90
10826;DHT22;5466;55.898;14.094;2024-03-08T06:07:19;-7.10;99.90
10826;DHT22;5466;55.898;14.094;2024-03-08T06:09:20;-7.10;99.90
10826;DHT22;5466;55.898;14.094;2024-03-08T06:11:23;-7.00;99.90
10826;DHT22;5466;55.898;14.094;2024-03-08T06:13:24;-6.90;99.90
10826;DHT22;5466;55.898;14.094;2024-03-08T06:15:24;-6.90;99.90
10826;DHT22;5466;55.898;14.094;2024-03-08T06:17:25;-6.80;99.90
10826;DHT22;5466;55.898;14.094;2024-03-08T06:19:26;-6.80;99.90
10826;DHT22;5466;55.898;14.094;2024-03-08T06:21:27;-6.70;99.90
10826;DHT22;5466;55.898;14.094;2024-03-08T06:23:27;-6.70;99.90
10826;DHT22;5466;55.898;14.094;2024-03-08T06:25:29;-6.70;99.90
10826;DHT22;5466;55.898;14.094;2024-03-08T06:27:30;-6.70;99.90
10826;DHT22;5466;55.898;14.094;2024-03-08T06:29:34;-6.60;99.90
10826;DHT22;5466;55.898;14.094;2024-03-08T06:31:34;-6.60;99.90
10826;DHT22;5466;55.898;14.094;2024-03-08T06:33:39;-6.50;99.90
10826;DHT22;5466;55.898;14.094;2024-03-08T06:35:39;-6.50;99.90
10826;DHT22;5466;55.898;14.094;2024-03-08T06:37:40;-6.40;99.90
10826;DHT22;5466;55.898;14.094;2024-03-08T06:39:42;-6.30;99.90
10826;DHT22;5466;55.898;14.094;2024-03-08T06:41:43;-6.20;99.90
10826;DHT22;5466;55.898;14.094;2024-03-08T06:43:47;-6.10;99.90
10826;DHT22;5466;55.898;14.094;2024-03-08T06:45:48;-6.00;99.90
10826;DHT22;5466;55.898;14.094;2024-03-08T06:47:51;-5.90;99.90
10826;DHT22;5466;55.898;14.094;2024-03-08T06:49:51;-5.70;99.90
10826;DHT22;5466;55.898;14.094;2024-03-08T06:51:52;-5.60;99.90
10826;DHT22;5466;55.898;14.094;2024-03-08T06:53:53;-5.30;99.90
10826;DHT22;5466;55.898;14.094;2024-03-08T06:55:54;-5.00;99.90
10826;DHT22;5466;55.898;14.094;2024-03-08T06:57:55;-4.80;99.90
10826;DHT22;5466;55.898;14.094;2024-03-08T06:59:55;-4.50;99.90
10826;DHT22;5466;55.898;14.094;2024-03-08T07:01:57;-4.40;99.90
10826;DHT22;5466;55.898;14.094;2024-03-08T07:03:59;-4.30;99.90
10826;DHT22;5466;55.898;14.094;2024-03-08T07:06:02;-4.20;99.90
10826;DHT22;5466;55.898;14.094;2024-03-08T07:08:03;-4.10;99.90
10826;DHT22;5466;55.898;14.094;2024-03-08T07:10:04;-3.90;99.90
10826;DHT22;5466;55.898;14.094;2024-03-08T07:12:05;-3.70;99.90
10826;DHT22;5466;55.898;14.094;2024-03-08T07:14:06;-3.40;99.90
10826;DHT22;5466;55.898;14.094;2024-03-08T07:16:07;-3.20;99.90
10826;DHT22;5466;55.898;14.094;2024-03-08T07:18:08;-3.00;99.90
10826;DHT22;5466;55.898;14.094;2024-03-08T07:20:10;-2.80;99.90
10826;DHT22;5466;55.898;14.094;2024-03-08T07:22:12;-2.60;99.90
10826;DHT22;5466;55.898;14.094;2024-03-08T07:24:13;-2.50;99.90
10826;DHT22;5466;55.898;14.094;2024-03-08T07:26:17;-2.40;99.90
10826;DHT22;5466;55.898;14.094;2024-03-08T07:28:19;-2.30;99.90
10826;DHT22;5466;55.898;14.094;2024-03-08T07:30:20;-2.20;99.90
10826;DHT22;5466;55.898;14.094;2024-03-08T07:32:40;-2.20;99.90
10826;DHT22;5466;55.898;14.094;2024-03-08T07:34:41;-2.00;99.90
10826;DHT22;5466;55.898;14.094;2024-03-08T07:36:42;-1.90;99.90
10826;DHT22;5466;55.898;14.094;2024-03-08T07:38:42;-1.70;99.90
10826;DHT22;5466;55.898;14.094;2024-03-08T07:40:44;-1.60;99.90
10826;DHT22;5466;55.898;14.094;2024-03-08T07:42:44;-1.40;99.90
10826;DHT22;5466;55.898;14.094;2024-03-08T07:44:45;-1.10;99.90
10826;DHT22;5466;55.898;14.094;2024-03-08T07:46:48;-0.80;99.90
10826;DHT22;5466;55.898;14.094;2024-03-08T07:48:49;-0.70;99.90
10826;DHT22;5466;55.898;14.094;2024-03-08T07:50:50;-0.40;99.90
10826;DHT22;5466;55.898;14.094;2024-03-08T07:52:51;-0.30;99.90
10826;DHT22;5466;55.898;14.094;2024-03-08T07:54:51;-0.10;99.90
10826;DHT22;5466;55.898;14.094;2024-03-08T07:56:52;0.00;99.90
10826;DHT22;5466;55.898;14.094;2024-03-08T07:58:53;0.00;99.90
10826;DHT22;5466;55.898;14.094;2024-03-08T08:00:53;-0.20;99.90
10826;DHT22;5466;55.898;14.094;2024-03-08T08:02:55;-0.30;99.90
10826;DHT22;5466;55.898;14.094;2024-03-08T08:04:56;-0.50;99.90
10826;DHT22;5466;55.898;14.094;2024-03-08T08:06:59;-0.60;99.90
10826;DHT22;5466;55.898;14.094;2024-03-08T08:09:00;-0.50;99.90
10826;DHT22;5466;55.898;14.094;2024-03-08T08:11:00;-0.30;99.90
10826;DHT22;5466;55.898;14.094;2024-03-08T08:13:03;-0.20;99.90
10826;DHT22;5466;55.898;14.094;2024-03-08T08:15:07;-0.10;99.90
10826;DHT22;5466;55.898;14.094;2024-03-08T08:17:08;0.10;99.90
10826;DHT22;5466;55.898;14.094;2024-03-08T08:19:09;0.20;99.90
10826;DHT22;5466;55.898;14.094;2024-03-08T08:21:09;0.20;99.90
10826;DHT22;5466;55.898;14.094;2024-03-08T08:23:11;0.20;99.90
10826;DHT22;5466;55.898;14.094;2024-03-08T08:25:12;0.20;99.90
10826;DHT22;5466;55.898;14.094;2024-03-08T08:27:13;0.10;99.90
10826;DHT22;5466;55.898;14.094;2024-03-08T08:29:15;0.10;99.90
10826;DHT22;5466;55.898;14.094;2024-03-08T08:31:15;0.20;99.90
10826;DHT22;5466;55.898;14.094;2024-03-08T08:33:16;0.30;99.90
10826;DHT22;5466;55.898;14.094;2024-03-08T08:35:17;0.30;99.90
10826;DHT22;5466;55.898;14.094;2024-03-08T08:37:20;0.40;99.90
10826;DHT22;5466;55.898;14.094;2024-03-08T08:39:20;0.40;99.90
10826;DHT22;5466;55.898;14.094;2024-03-08T08:41:23;0.40;99.90
10826;DHT22;5466;55.898;14.094;2024-03-08T08:43:23;0.50;99.90
10826;DHT22;5466;55.898;14.094;2024-03-08T08:45:26;0.60;99.90
10826;DHT22;5466;55.898;14.094;2024-03-08T08:47:27;0.80;99.90
10826;DHT22;5466;55.898;14.094;2024-03-08T08:49:28;0.90;99.90
10826;DHT22;5466;55.898;14.094;2024-03-08T08:51:29;0.90;99.90
10826;DHT22;5466;55.898;14.094;2024-03-08T08:53:29;0.80;99.90
10826;DHT22;5466;55.898;14.094;2024-03-08T08:55:30;0.80;99.90
10826;DHT22;5466;55.898;14.094;2024-03-08T08:57:31;0.90;99.90
10826;DHT22;5466;55.898;14.094;2024-03-08T08:59:36;0.90;99.90
10826;DHT22;5466;55.898;14.094;2024-03-08T09:01:39;0.90;99.90
10826;DHT22;5466;55.898;14.094;2024-03-08T09:03:41;1.00;99.90
10826;DHT22;5466;55.898;14.094;2024-03-08T09:05:41;1.20;99.90
10826;DHT22;5466;55.898;14.094;2024-03-08T09:07:43;1.20;99.90
10826;DHT22;5466;55.898;14.094;2024-03-08T09:09:47;1.30;99.90
10826;DHT22;5466;55.898;14.094;2024-03-08T09:11:47;1.30;99.90
10826;DHT22;5466;55.898;14.094;2024-03-08T09:13:49;1.30;99.90
10826;DHT22;5466;55.898;14.094;2024-03-08T09:15:50;1.30;99.90
10826;DHT22;5466;55.898;14.094;2024-03-08T09:17:53;1.20;99.90
10826;DHT22;5466;55.898;14.094;2024-03-08T09:19:53;1.20;99.90
10826;DHT22;5466;55.898;14.094;2024-03-08T09:21:54;1.20;99.90
10826;DHT22;5466;55.898;14.094;2024-03-08T09:23:55;1.40;99.90
10826;DHT22;5466;55.898;14.094;2024-03-08T09:25:58;1.50;99.90
10826;DHT22;5466;55.898;14.094;2024-03-08T09:27:59;1.60;99.90
10826;DHT22;5466;55.898;14.094;2024-03-08T09:30:00;1.80;99.90
10826;DHT22;5466;55.898;14.094;2024-03-08T09:32:01;2.10;99.90
10826;DHT22;5466;55.898;14.094;2024-03-08T09:34:03;2.30;99.90
10826;DHT22;5466;55.898;14.094;2024-03-08T09:36:05;2.60;99.90
10826;DHT22;5466;55.898;14.094;2024-03-08T09:38:07;2.90;99.90
10826;DHT22;5466;55.898;14.094;2024-03-08T09:40:13;3.10;99.90
10826;DHT22;5466;55.898;14.094;2024-03-08T09:42:16;3.30;99.90
10826;DHT22;5466;55.898;14.094;2024-03-08T09:44:17;3.40;99.90
10826;DHT22;5466;55.898;14.094;2024-03-08T09:46:19;3.50;99.90
10826;DHT22;5466;55.898;14.094;2024-03-08T09:48:22;3.60;99.90
10826;DHT22;5466;55.898;14.094;2024-03-08T09:50:23;3.80;99.90
10826;DHT22;5466;55.898;14.094;2024-03-08T09:52:23;3.80;99.90
10826;DHT22;5466;55.898;14.094;2024-03-08T09:54:25;3.90;99.90
10826;DHT22;5466;55.898;14.094;2024-03-08T09:56:27;4.00;99.90
10826;DHT22;5466;55.898;14.094;2024-03-08T09:58:28;4.10;99.90
10826;DHT22;5466;55.898;14.094;2024-03-08T10:00:34;4.20;99.90
10826;DHT22;5466;55.898;14.094;2024-03-08T10:02:35;4.30;99.90
10826;DHT22;5466;55.898;14.094;2024-03-08T10:04:36;4.40;99.90
10826;DHT22;5466;55.898;14.094;2024-03-08T10:06:36;4.70;99.90
10826;DHT22;5466;55.898;14.094;2024-03-08T10:08:37;4.90;99.90
10826;DHT22;5466;55.898;14.094;2024-03-08T10:10:38;5.10;99.90
10826;DHT22;5466;55.898;14.094;2024-03-08T10:12:39;5.10;99.90
10826;DHT22;5466;55.898;14.094;2024-03-08T10:14:40;5.30;99.90
10826;DHT22;5466;55.898;14.094;2024-03-08T10:16:41;5.30;99.90
10826;DHT22;5466;55.898;14.094;2024-03-08T10:18:42;5.50;99.90
10826;DHT22;5466;55.898;14.094;2024-03-08T10:20:42;5.60;99.90
10826;DHT22;5466;55.898;14.094;2024-03-08T10:22:43;5.70;99.90
10826;DHT22;5466;55.898;14.094;2024-03-08T10:24:46;5.70;99.90
10826;DHT22;5466;55.898;14.094;2024-03-08T10:26:47;5.70;99.90
10826;DHT22;5466;55.898;14.094;2024-03-08T10:28:48;5.60;99.90
10826;DHT22;5466;55.898;14.094;2024-03-08T10:30:49;5.60;99.90
10826;DHT22;5466;55.898;14.094;2024-03-08T10:32:50;5.80;99.90
10826;DHT22;5466;55.898;14.094;2024-03-08T10:34:52;6.00;99.90
10826;DHT22;5466;55.898;14.094;2024-03-08T10:36:53;6.20;99.90
10826;DHT22;5466;55.898;14.094;2024-03-08T10:38:59;6.20;99.90
10826;DHT22;5466;55.898;14.094;2024-03-08T10:41:02;6.40;99.90
10826;DHT22;5466;55.898;14.094;2024-03-08T10:43:04;6.60;99.90
10826;DHT22;5466;55.898;14.094;2024-03-08T10:45:08;6.50;99.90
10826;DHT22;5466;55.898;14.094;2024-03-08T10:47:19;6.50;99.90
10826;DHT22;5466;55.898;14.094;2024-03-08T10:49:30;6.30;99.90
10826;DHT22;5466;55.898;14.094;2024-03-08T10:51:31;6.60;99.90
10826;DHT22;5466;55.898;14.094;2024-03-08T10:53:34;6.70;99.90
10826;DHT22;5466;55.898;14.094;2024-03-08T10:55:36;6.90;99.90
10826;DHT22;5466;55.898;14.094;2024-03-08T10:57:38;7.10;99.90
10826;DHT22;5466;55.898;14.094;2024-03-08T10:59:40;7.20;99.90
10826;DHT22;5466;55.898;14.094;2024-03-08T11:01:43;7.20;99.90
10826;DHT22;5466;55.898;14.094;2024-03-08T11:03:44;7.20;99.90
10826;DHT22;5466;55.898;14.094;2024-03-08T11:05:45;7.30;99.90
10826;DHT22;5466;55.898;14.094;2024-03-08T11:07:50;7.30;99.90
10826;DHT22;5466;55.898;14.094;2024-03-08T11:09:51;7.40;99.90
10826;DHT22;5466;55.898;14.094;2024-03-08T11:11:52;7.80;99.90
10826;DHT22;5466;55.898;14.094;2024-03-08T11:13:53;8.10;99.90
10826;DHT22;5466;55.898;14.094;2024-03-08T11:15:54;7.80;99.90
10826;DHT22;5466;55.898;14.094;2024-03-08T11:17:58;8.00;99.90
10826;DHT22;5466;55.898;14.094;2024-03-08T11:20:00;7.90;99.90
10826;DHT22;5466;55.898;14.094;2024-03-08T11:22:03;7.90;99.90
10826;DHT22;5466;55.898;14.094;2024-03-08T11:24:07;8.00;99.90
10826;DHT22;5466;55.898;14.094;2024-03-08T11:26:24;8.00;99.90
10826;DHT22;5466;55.898;14.094;2024-03-08T11:28:25;8.00;99.90
10826;DHT22;5466;55.898;14.094;2024-03-08T11:30:27;7.90;99.90
10826;DHT22;5466;55.898;14.094;2024-03-08T11:32:29;7.90;99.90
10826;DHT22;5466;55.898;14.094;2024-03-08T11:34:31;7.90;99.90
10826;DHT22;5466;55.898;14.094;2024-03-08T11:36:34;8.30;99.90
10826;DHT22;5466;55.898;14.094;2024-03-08T11:38:41;8.20;99.90
10826;DHT22;5466;55.898;14.094;2024-03-08T11:40:42;8.10;99.90
10826;DHT22;5466;55.898;14.094;2024-03-08T11:42:46;8.00;99.90
10826;DHT22;5466;55.898;14.094;2024-03-08T11:44:52;8.00;99.90
10826;DHT22;5466;55.898;14.094;2024-03-08T11:46:54;7.90;99.90
10826;DHT22;5466;55.898;14.094;2024-03-08T11:48:54;8.00;99.90
10826;DHT22;5466;55.898;14.094;2024-03-08T11:51:00;7.80;99.90
10826;DHT22;5466;55.898;14.094;2024-03-08T11:53:04;7.50;99.90
10826;DHT22;5466;55.898;14.094;2024-03-08T11:55:06;7.60;99.90
10826;DHT22;5466;55.898;14.094;2024-03-08T11:57:07;7.70;99.90
10826;DHT22;5466;55.898;14.094;2024-03-08T11:59:12;7.90;99.90
10826;DHT22;5466;55.898;14.094;2024-03-08T12:01:13;8.00;99.90
10826;DHT22;5466;55.898;14.094;2024-03-08T12:03:14;8.10;99.90
10826;DHT22;5466;55.898;14.094;2024-03-08T12:05:14;8.20;99.90
10826;DHT22;5466;55.898;14.094;2024-03-08T12:07:16;8.30;99.90
10826;DHT22;5466;55.898;14.094;2024-03-08T12:09:19;8.50;99.90
10826;DHT22;5466;55.898;14.094;2024-03-08T12:11:22;8.60;99.90
10826;DHT22;5466;55.898;14.094;2024-03-08T12:13:23;8.60;99.90
10826;DHT22;5466;55.898;14.094;2024-03-08T12:15:24;8.50;99.90
10826;DHT22;5466;55.898;14.094;2024-03-08T12:17:24;8.50;99.90
10826;DHT22;5466;55.898;14.094;2024-03-08T12:19:25;8.40;99.90
10826;DHT22;5466;55.898;14.094;2024-03-08T12:21:26;8.50;99.90
10826;DHT22;5466;55.898;14.094;2024-03-08T12:23:29;8.50;99.90
10826;DHT22;5466;55.898;14.094;2024-03-08T12:25:33;8.40;99.90
10826;DHT22;5466;55.898;14.094;2024-03-08T12:27:35;8.30;99.90
10826;DHT22;5466;55.898;14.094;2024-03-08T12:29:38;8.40;99.90
10826;DHT22;5466;55.898;14.094;2024-03-08T12:31:39;8.50;99.90
10826;DHT22;5466;55.898;14.094;2024-03-08T12:33:53;8.40;99.90
10826;DHT22;5466;55.898;14.094;2024-03-08T12:35:54;8.40;99.90
10826;DHT22;5466;55.898;14.094;2024-03-08T12:37:57;8.50;99.90
10826;DHT22;5466;55.898;14.094;2024-03-08T12:39:58;8.50;99.90
10826;DHT22;5466;55.898;14.094;2024-03-08T12:41:59;8.70;99.90
10826;DHT22;5466;55.898;14.094;2024-03-08T12:44:02;8.70;99.90
10826;DHT22;5466;55.898;14.094;2024-03-08T12:46:07;8.60;99.90
10826;DHT22;5466;55.898;14.094;2024-03-08T12:48:13;8.40;99.90
10826;DHT22;5466;55.898;14.094;2024-03-08T12:50:17;8.30;99.90
10826;DHT22;5466;55.898;14.094;2024-03-08T12:52:18;8.20;99.90
10826;DHT22;5466;55.898;14.094;2024-03-08T12:54:19;8.00;99.90